Bearcreek, Montana
Current Conditions -  °F | °C
As of 10:35 AM on Saturday 25 Oct 2014 (Local Time) from KPOY Reporting Station
Clear Clear  
Wind Chill: 52°   Ceiling: Unl
Heat Index: 52°   Visibility: 10mi
Dew Point: 32°   Wind: 15mph
Humidity: 47%   Direction: 130°SE
Pressure: 30.05"   Gusts: NA
Location:  45.16°N, 109.16°W
Report Text: KPOY 251635Z AUTO 13013KT 10SM CLR 11/00 A3005 RMK AO2
Loading
Personal Weather Stations






























Interactive Weather Map
Tropical Storm Tracking
New forecast layout! Learn more

10-Day Weather Forecast

Advertisements
Track Severe Weather on mobile